Time;durP1;ratioP1;P1;durP2;ratioP2;P2;SDS_P1;SDS_P2;PMS_P1;PMS_P2;Temp;Humidity;BMP_temperature;BMP_pressure;BME280_temperature;BME280_humidity;BME280_pressure;Samples;Min_cycle;Max_cycle;Signal;HPM_P1;HPM_P2
2021/11/06 00:01:44;;;;;;;2.60;1.52;;;21.50;55.10;;;;;;5040903;28;20048;-59
2021/11/06 00:04:09;;;;;;;2.17;1.30;;;21.50;55.10;;;;;;5043596;28;20020;-60
2021/11/06 00:06:35;;;;;;;3.13;1.60;;;21.50;55.10;;;;;;5035954;28;20079;-57
2021/11/06 00:09:00;;;;;;;3.30;1.48;;;21.50;55.10;;;;;;5034606;28;20025;-53
2021/11/06 00:11:26;;;;;;;2.88;1.55;;;21.40;55.10;;;;;;5031867;28;20127;-59
2021/11/06 00:13:52;;;;;;;2.65;1.55;;;21.40;55.10;;;;;;5040925;28;20426;-58
2021/11/06 00:16:17;;;;;;;3.10;1.50;;;21.40;55.00;;;;;;5038423;28;20044;-58
2021/11/06 00:18:43;;;;;;;3.58;1.50;;;21.40;55.10;;;;;;5040276;28;20450;-59
2021/11/06 00:21:09;;;;;;;2.65;1.38;;;21.40;55.10;;;;;;5041253;28;20038;-58
2021/11/06 00:23:34;;;;;;;3.70;1.40;;;21.40;55.10;;;;;;5034870;28;20044;-60
2021/11/06 00:26:00;;;;;;;2.45;1.40;;;21.40;55.10;;;;;;5041026;28;20104;-59
2021/11/06 00:28:26;;;;;;;2.92;1.42;;;21.40;55.10;;;;;;5041486;28;20037;-59
2021/11/06 00:30:51;;;;;;;2.58;1.50;;;21.40;55.10;;;;;;5034552;28;20672;-59
2021/11/06 00:33:17;;;;;;;2.15;1.40;;;21.40;55.10;;;;;;5043681;28;20044;-59
2021/11/06 00:35:43;;;;;;;2.70;1.40;;;21.40;55.10;;;;;;5038275;28;20087;-60
2021/11/06 00:38:09;;;;;;;3.00;1.50;;;21.40;55.10;;;;;;5042578;28;20440;-60
2021/11/06 00:40:34;;;;;;;2.40;1.30;;;21.40;55.10;;;;;;5035918;28;20033;-59
2021/11/06 00:43:00;;;;;;;2.58;1.42;;;21.30;55.00;;;;;;5034651;28;20490;-58
2021/11/06 00:45:26;;;;;;;2.40;1.40;;;21.30;55.00;;;;;;5032665;28;20053;-59
2021/11/06 00:47:52;;;;;;;2.00;1.40;;;21.30;55.00;;;;;;5036296;28;20032;-59
2021/11/06 00:50:19;;;;;;;2.50;1.40;;;21.30;55.00;;;;;;5031769;28;20418;-59
2021/11/06 00:52:49;;;;;;;1.83;1.27;;;21.30;55.00;;;;;;5039365;28;20461;-60
2021/11/06 00:55:16;;;;;;;1.92;1.20;;;21.30;55.00;;;;;;5034316;28;20099;-58
2021/11/06 00:57:42;;;;;;;3.08;1.58;;;21.30;55.00;;;;;;5031469;28;20040;-59
2021/11/06 01:00:11;;;;;;;2.70;1.42;;;21.30;55.00;;;;;;5039602;28;20029;-60
2021/11/06 01:02:37;;;;;;;2.65;1.55;;;21.30;55.10;;;;;;5040033;28;20366;-57
2021/11/06 01:05:05;;;;;;;3.03;1.48;;;21.30;55.00;;;;;;5038792;28;20029;-59
2021/11/06 01:07:31;;;;;;;2.28;1.40;;;21.30;55.00;;;;;;5039024;28;20108;-60
2021/11/06 01:09:57;;;;;;;2.35;1.50;;;21.30;55.00;;;;;;5035019;28;20100;-60
2021/11/06 01:12:22;;;;;;;2.08;1.33;;;21.30;55.00;;;;;;5034133;28;20032;-59
2021/11/06 01:14:48;;;;;;;1.90;1.20;;;21.20;55.00;;;;;;5035726;28;20647;-60
2021/11/06 01:17:14;;;;;;;2.05;1.30;;;21.20;55.00;;;;;;5033340;28;20392;-59
2021/11/06 01:19:39;;;;;;;2.17;1.30;;;21.20;55.00;;;;;;5035774;28;20029;-59
2021/11/06 01:22:05;;;;;;;2.10;1.30;;;21.20;55.00;;;;;;5037919;28;20025;-60
2021/11/06 01:24:31;;;;;;;2.13;1.20;;;21.20;55.00;;;;;;5035731;28;20378;-58
2021/11/06 01:26:57;;;;;;;2.33;1.30;;;21.20;55.00;;;;;;5037515;28;20029;-60
2021/11/06 01:29:23;;;;;;;2.25;1.30;;;21.20;55.00;;;;;;5032098;28;20052;-56
2021/11/06 01:31:50;;;;;;;2.38;1.45;;;21.20;55.00;;;;;;5046321;28;20060;-59
2021/11/06 01:34:16;;;;;;;1.77;1.23;;;21.20;55.00;;;;;;5040176;28;20041;-60
2021/11/06 01:36:41;;;;;;;2.38;1.35;;;21.20;55.00;;;;;;5041302;28;20024;-59
2021/11/06 01:39:07;;;;;;;2.05;1.30;;;21.10;55.00;;;;;;5029465;28;20163;-59
2021/11/06 01:41:34;;;;;;;2.00;1.20;;;21.10;55.00;;;;;;5040242;28;20113;-58
2021/11/06 01:44:01;;;;;;;2.47;1.30;;;21.10;55.00;;;;;;5030931;28;20029;-60
2021/11/06 01:46:26;;;;;;;2.25;1.52;;;21.10;55.00;;;;;;5034661;28;20123;-59
2021/11/06 01:48:52;;;;;;;1.70;1.10;;;21.10;55.00;;;;;;5035353;28;20069;-59
2021/11/06 01:51:17;;;;;;;2.03;1.15;;;21.10;55.00;;;;;;5041251;28;20118;-59
2021/11/06 01:53:44;;;;;;;1.75;1.20;;;21.10;55.00;;;;;;5037386;28;20567;-59
2021/11/06 01:56:09;;;;;;;1.85;1.30;;;21.10;55.00;;;;;;5037771;28;20095;-59
2021/11/06 01:58:35;;;;;;;2.00;1.30;;;21.10;55.00;;;;;;5030274;28;20033;-57
2021/11/06 02:01:01;;;;;;;2.15;1.27;;;21.10;55.00;;;;;;5052508;28;20082;-59
2021/11/06 02:03:27;;;;;;;1.75;1.10;;;21.10;55.00;;;;;;5039798;28;20048;-59
2021/11/06 02:05:53;;;;;;;1.83;1.00;;;21.10;55.00;;;;;;5032575;28;20429;-59
2021/11/06 02:08:19;;;;;;;2.38;1.20;;;21.10;55.00;;;;;;5044147;28;20029;-59
2021/11/06 02:10:46;;;;;;;2.67;1.30;;;21.00;55.00;;;;;;5033584;28;20031;-58
2021/11/06 02:13:12;;;;;;;1.90;1.10;;;21.10;55.00;;;;;;5040863;28;20122;-59
2021/11/06 02:15:39;;;;;;;2.20;1.30;;;21.10;55.00;;;;;;5038535;28;20506;-59
2021/11/06 02:18:06;;;;;;;2.47;1.30;;;21.00;55.00;;;;;;5035542;28;20064;-56
2021/11/06 02:20:32;;;;;;;2.40;1.20;;;21.00;55.00;;;;;;5040082;28;20800;-57
2021/11/06 02:22:58;;;;;;;2.35;1.15;;;21.00;55.00;;;;;;5036322;28;20029;-59
2021/11/06 02:25:24;;;;;;;1.85;1.20;;;21.00;55.00;;;;;;5041601;28;20083;-59
2021/11/06 02:27:51;;;;;;;2.03;1.10;;;21.00;55.00;;;;;;5043217;28;20057;-59
2021/11/06 02:30:17;;;;;;;1.73;1.08;;;21.00;55.00;;;;;;5032666;28;20113;-60
2021/11/06 02:32:45;;;;;;;1.77;1.13;;;21.00;55.00;;;;;;5041220;28;20083;-55
2021/11/06 02:35:12;;;;;;;2.00;1.30;;;21.00;55.00;;;;;;5038528;28;20040;-60
2021/11/06 02:37:38;;;;;;;1.80;1.20;;;21.00;55.00;;;;;;5044270;28;20052;-59
2021/11/06 02:40:05;;;;;;;1.67;1.15;;;21.00;55.00;;;;;;5040004;28;20524;-59
2021/11/06 02:42:31;;;;;;;1.60;1.17;;;21.00;55.00;;;;;;5037333;28;20120;-59
2021/11/06 02:44:57;;;;;;;1.50;1.00;;;20.90;55.00;;;;;;5042484;28;20803;-54
2021/11/06 02:47:23;;;;;;;1.80;1.20;;;21.00;55.50;;;;;;5044528;28;20033;-59
2021/11/06 02:49:49;;;;;;;1.90;1.27;;;21.00;55.00;;;;;;5045268;28;20095;-59
2021/11/06 02:52:15;;;;;;;1.25;1.00;;;20.90;54.90;;;;;;5037498;28;20032;-59
2021/11/06 02:54:40;;;;;;;2.00;1.20;;;20.90;55.00;;;;;;5036750;28;20025;-59
2021/11/06 02:57:10;;;;;;;1.98;1.10;;;20.90;55.00;;;;;;5033657;28;20043;-59
2021/11/06 02:59:36;;;;;;;2.47;1.00;;;20.90;55.00;;;;;;5049520;28;20041;-59
2021/11/06 03:02:01;;;;;;;1.83;1.27;;;20.90;55.00;;;;;;5033944;28;20063;-59
2021/11/06 03:04:27;;;;;;;1.88;1.10;;;20.90;55.00;;;;;;5038771;28;20057;-59
2021/11/06 03:06:53;;;;;;;2.45;1.17;;;20.90;55.00;;;;;;5032855;28;20075;-60
2021/11/06 03:09:18;;;;;;;2.13;1.30;;;20.90;55.00;;;;;;5041036;28;20029;-59
2021/11/06 03:11:44;;;;;;;2.20;1.30;;;20.90;55.00;;;;;;5039571;28;20033;-58
2021/11/06 03:14:11;;;;;;;1.50;1.10;;;20.90;55.00;;;;;;5034818;28;20040;-59
2021/11/06 03:16:41;;;;;;;2.35;1.30;;;20.90;55.00;;;;;;5036870;28;20029;-58
2021/11/06 03:19:07;;;;;;;1.80;1.00;;;20.80;54.90;;;;;;5033574;28;20025;-59
2021/11/06 03:21:33;;;;;;;2.05;1.25;;;20.90;55.00;;;;;;5038863;28;20071;-59
2021/11/06 03:23:59;;;;;;;2.58;1.30;;;20.80;54.90;;;;;;5040254;28;20056;-57
2021/11/06 03:26:24;;;;;;;1.90;1.00;;;20.80;54.90;;;;;;5035931;28;20040;-59
2021/11/06 03:28:50;;;;;;;1.63;1.10;;;20.80;55.00;;;;;;5033405;28;20025;-58
2021/11/06 03:31:16;;;;;;;1.40;1.00;;;20.80;55.00;;;;;;5038335;28;20034;-59
2021/11/06 03:33:42;;;;;;;1.77;1.10;;;20.80;55.00;;;;;;5046573;28;20033;-59
2021/11/06 03:36:07;;;;;;;2.08;1.17;;;20.80;55.00;;;;;;5034983;28;20036;-59
2021/11/06 03:38:33;;;;;;;1.45;1.08;;;20.80;55.00;;;;;;5040266;28;20110;-57
2021/11/06 03:40:59;;;;;;;1.65;1.10;;;20.80;55.00;;;;;;5033232;28;20064;-56
2021/11/06 03:43:24;;;;;;;2.00;1.10;;;20.80;55.00;;;;;;5038061;28;20037;-59
2021/11/06 03:45:50;;;;;;;1.88;1.17;;;20.80;55.00;;;;;;5036973;28;20430;-57
2021/11/06 03:48:16;;;;;;;1.50;1.10;;;20.80;55.00;;;;;;5041940;28;20068;-59
2021/11/06 03:50:42;;;;;;;1.88;1.20;;;20.80;55.00;;;;;;5039214;28;20033;-57
2021/11/06 03:53:07;;;;;;;2.00;1.13;;;20.80;55.00;;;;;;5035089;28;20036;-59
2021/11/06 03:55:33;;;;;;;1.75;1.00;;;20.80;55.00;;;;;;5041177;28;20024;-59
2021/11/06 03:57:59;;;;;;;1.10;0.85;;;20.70;54.90;;;;;;5033442;28;20531;-58
2021/11/06 04:00:25;;;;;;;2.00;1.20;;;20.70;54.90;;;;;;5052299;28;20033;-59
2021/11/06 04:02:50;;;;;;;1.38;1.00;;;20.70;55.00;;;;;;5037304;28;20025;-59
2021/11/06 04:05:19;;;;;;;2.20;1.10;;;20.70;55.00;;;;;;5047525;28;20385;-59
2021/11/06 04:07:45;;;;;;;2.20;1.00;;;20.70;54.90;;;;;;5031060;28;20037;-60
2021/11/06 04:10:12;;;;;;;1.75;0.98;;;20.70;55.00;;;;;;5044838;28;20037;-59
2021/11/06 04:12:39;;;;;;;1.50;1.10;;;20.70;55.00;;;;;;5031027;28;20026;-60
2021/11/06 04:15:06;;;;;;;1.95;1.10;;;20.70;55.00;;;;;;5041069;28;20022;-59
2021/11/06 04:17:32;;;;;;;1.80;1.05;;;20.70;55.00;;;;;;5041178;28;20029;-59
2021/11/06 04:19:57;;;;;;;1.80;1.25;;;20.70;55.00;;;;;;5037645;28;20151;-58
2021/11/06 04:22:23;;;;;;;1.65;1.10;;;20.70;55.00;;;;;;5034693;28;20562;-58
2021/11/06 04:24:49;;;;;;;1.25;0.90;;;20.70;55.00;;;;;;5038159;28;20107;-58
2021/11/06 04:27:14;;;;;;;1.67;1.00;;;20.70;55.00;;;;;;5037148;28;20037;-59
2021/11/06 04:29:40;;;;;;;1.30;1.00;;;20.70;55.00;;;;;;5037693;28;20037;-57
2021/11/06 04:32:06;;;;;;;1.45;1.00;;;20.70;55.00;;;;;;5040699;28;20102;-57
2021/11/06 04:34:32;;;;;;;1.50;1.00;;;20.60;54.90;;;;;;5042929;28;20029;-59
2021/11/06 04:36:58;;;;;;;1.15;0.90;;;20.70;55.00;;;;;;5043100;28;20020;-57
2021/11/06 04:39:23;;;;;;;1.75;1.00;;;20.60;54.90;;;;;;5037074;28;20187;-58
2021/11/06 04:41:49;;;;;;;1.33;1.00;;;20.70;55.00;;;;;;5032155;28;20056;-59
2021/11/06 04:44:15;;;;;;;1.48;1.00;;;20.60;54.90;;;;;;5037540;28;20044;-56
2021/11/06 04:46:41;;;;;;;1.40;1.00;;;20.60;54.90;;;;;;5036194;28;20025;-58
2021/11/06 04:49:06;;;;;;;2.05;1.10;;;20.60;55.00;;;;;;5043447;28;20546;-59
2021/11/06 04:51:32;;;;;;;1.65;1.13;;;20.70;55.00;;;;;;5034810;28;20116;-58
2021/11/06 04:53:58;;;;;;;1.55;1.10;;;20.60;55.00;;;;;;5041646;28;20460;-59
2021/11/06 04:56:23;;;;;;;1.30;1.00;;;20.60;55.00;;;;;;5048508;28;20036;-58
2021/11/06 04:58:49;;;;;;;1.60;1.10;;;20.60;54.90;;;;;;5033083;28;20033;-59
2021/11/06 05:01:15;;;;;;;1.77;1.08;;;20.60;54.90;;;;;;5036250;28;20330;-59
2021/11/06 05:03:40;;;;;;;1.17;0.85;;;20.60;55.00;;;;;;5033933;28;20101;-60
2021/11/06 05:06:06;;;;;;;1.13;1.00;;;20.60;55.00;;;;;;5039150;28;20033;-56
2021/11/06 05:08:32;;;;;;;1.50;1.08;;;20.60;55.00;;;;;;5034684;28;20040;-59
2021/11/06 05:10:57;;;;;;;1.58;1.02;;;20.60;55.00;;;;;;5040738;28;20032;-59
2021/11/06 05:13:23;;;;;;;1.20;0.90;;;20.60;55.00;;;;;;5032640;28;20055;-59
2021/11/06 05:15:49;;;;;;;1.60;1.10;;;20.60;55.00;;;;;;5030789;28;20445;-59
2021/11/06 05:18:16;;;;;;;1.63;1.10;;;20.50;55.00;;;;;;5035558;28;20041;-60
2021/11/06 05:20:43;;;;;;;1.25;1.00;;;20.60;55.00;;;;;;5035803;28;20100;-58
2021/11/06 05:23:09;;;;;;;1.67;1.00;;;20.60;55.10;;;;;;5031729;28;20528;-59
2021/11/06 05:25:34;;;;;;;1.00;0.90;;;20.60;55.00;;;;;;5037718;28;20107;-58
2021/11/06 05:28:00;;;;;;;1.30;0.93;;;20.60;55.00;;;;;;5035378;28;20123;-59
2021/11/06 05:30:26;;;;;;;1.45;1.00;;;20.50;55.00;;;;;;5037859;28;20029;-57
2021/11/06 05:32:51;;;;;;;1.58;1.00;;;20.50;55.00;;;;;;5028950;28;20037;-58
2021/11/06 05:35:17;;;;;;;1.50;0.90;;;20.50;55.00;;;;;;5033829;28;20048;-60
2021/11/06 05:37:42;;;;;;;1.75;1.10;;;20.50;55.00;;;;;;5032135;28;20049;-57
2021/11/06 05:40:10;;;;;;;1.50;1.05;;;20.50;55.00;;;;;;5040798;28;20029;-58
2021/11/06 05:42:36;;;;;;;1.55;1.00;;;20.50;55.00;;;;;;5033220;28;20036;-59
2021/11/06 05:45:03;;;;;;;1.50;1.00;;;20.50;55.00;;;;;;5035755;28;20029;-59
2021/11/06 05:47:29;;;;;;;1.75;1.10;;;20.50;55.00;;;;;;5035977;28;20037;-60
2021/11/06 05:49:55;;;;;;;1.70;0.98;;;20.50;55.00;;;;;;5034545;28;20021;-58
2021/11/06 05:52:20;;;;;;;1.35;0.93;;;20.50;55.10;;;;;;5034774;28;20575;-58
2021/11/06 05:54:46;;;;;;;1.30;1.00;;;20.50;55.10;;;;;;5033310;28;20060;-59
2021/11/06 05:57:12;;;;;;;1.55;0.90;;;20.50;55.10;;;;;;5036513;28;20029;-57
2021/11/06 05:59:37;;;;;;;1.00;0.80;;;20.50;55.10;;;;;;5041549;28;20047;-59
2021/11/06 06:02:04;;;;;;;1.52;0.90;;;20.50;55.10;;;;;;5029914;28;20042;-57
2021/11/06 06:04:30;;;;;;;1.38;0.90;;;20.50;55.10;;;;;;5027871;28;20476;-59
2021/11/06 06:06:55;;;;;;;1.75;1.00;;;20.50;55.10;;;;;;5030169;28;20040;-59
2021/11/06 06:09:21;;;;;;;0.80;0.80;;;20.50;55.10;;;;;;5027745;28;20037;-59
2021/11/06 06:11:47;;;;;;;1.50;1.00;;;20.40;55.10;;;;;;5034639;28;20593;-59
2021/11/06 06:14:12;;;;;;;1.17;0.93;;;20.40;55.10;;;;;;5030180;28;20026;-59
2021/11/06 06:16:38;;;;;;;1.02;0.90;;;20.40;55.10;;;;;;5029610;28;20037;-60
2021/11/06 06:19:03;;;;;;;1.65;1.05;;;20.40;55.10;;;;;;5033145;28;20029;-59
2021/11/06 06:21:30;;;;;;;1.38;0.90;;;20.50;55.20;;;;;;5025372;28;20096;-55
2021/11/06 06:23:56;;;;;;;1.15;0.90;;;20.50;55.20;;;;;;5032131;28;20063;-59
2021/11/06 06:26:22;;;;;;;1.50;1.00;;;20.40;55.10;;;;;;5031023;28;20033;-59
2021/11/06 06:28:48;;;;;;;1.15;0.85;;;20.40;55.10;;;;;;5042665;28;20039;-59
2021/11/06 06:31:14;;;;;;;1.38;0.90;;;20.40;55.10;;;;;;5028027;28;20147;-59
2021/11/06 06:33:40;;;;;;;1.33;0.90;;;20.50;55.20;;;;;;5040359;28;20025;-59
2021/11/06 06:36:05;;;;;;;1.08;0.80;;;20.40;55.20;;;;;;5037665;28;20033;-59
2021/11/06 06:38:33;;;;;;;1.70;0.90;;;20.40;55.20;;;;;;5038206;28;20040;-58
2021/11/06 06:40:59;;;;;;;1.85;1.08;;;20.40;55.10;;;;;;5033476;28;20129;-59
2021/11/06 06:43:25;;;;;;;1.38;0.93;;;20.40;55.20;;;;;;5040381;28;20139;-57
2021/11/06 06:45:51;;;;;;;1.58;1.00;;;20.40;55.20;;;;;;5031894;28;20056;-59
2021/11/06 06:48:17;;;;;;;1.50;0.95;;;20.40;55.20;;;;;;5035840;28;20413;-55
2021/11/06 06:50:47;;;;;;;1.10;0.90;;;20.40;55.20;;;;;;5034313;28;20038;-58
2021/11/06 06:53:20;;;;;;;1.80;0.90;;;20.40;55.20;;;;;;5036700;28;20502;-58
2021/11/06 06:55:46;;;;;;;1.02;0.90;;;20.40;55.20;;;;;;5041596;28;20288;-58
2021/11/06 06:58:12;;;;;;;1.50;1.08;;;20.40;55.20;;;;;;5029845;28;20446;-56
2021/11/06 07:00:38;;;;;;;1.60;0.93;;;20.40;55.20;;;;;;5042547;28;20381;-60
2021/11/06 07:03:03;;;;;;;2.10;1.00;;;20.40;55.20;;;;;;5041477;28;20048;-59
2021/11/06 07:05:29;;;;;;;1.52;1.08;;;20.40;55.20;;;;;;5037984;28;20064;-59
2021/11/06 07:07:56;;;;;;;1.30;0.90;;;20.40;55.20;;;;;;5039125;28;20025;-59
2021/11/06 07:10:23;;;;;;;1.73;1.02;;;20.40;55.20;;;;;;5036004;28;20519;-57
2021/11/06 07:12:49;;;;;;;1.65;1.10;;;20.40;55.20;;;;;;5032583;28;20069;-59
2021/11/06 07:15:15;;;;;;;2.22;1.00;;;20.40;55.20;;;;;;5035117;28;20025;-56
2021/11/06 07:17:40;;;;;;;2.05;0.88;;;20.40;55.20;;;;;;5034241;28;20029;-57
2021/11/06 07:20:07;;;;;;;1.40;0.90;;;20.30;55.10;;;;;;5040674;28;20037;-59
2021/11/06 07:22:33;;;;;;;1.52;1.00;;;20.40;55.20;;;;;;5034860;28;20811;-59
2021/11/06 07:24:58;;;;;;;1.65;0.93;;;20.30;55.10;;;;;;5035510;28;20492;-59
2021/11/06 07:27:24;;;;;;;2.33;1.00;;;20.30;55.10;;;;;;5038002;28;20029;-59
2021/11/06 07:29:49;;;;;;;1.45;0.95;;;20.40;55.20;;;;;;5032455;28;20037;-59
2021/11/06 07:32:15;;;;;;;1.67;0.98;;;20.30;55.20;;;;;;5032123;28;20096;-58
2021/11/06 07:34:41;;;;;;;1.45;1.00;;;20.30;55.20;;;;;;5034321;28;20033;-58
2021/11/06 07:37:07;;;;;;;1.80;1.10;;;20.30;55.10;;;;;;5029686;28;20115;-58
2021/11/06 07:39:33;;;;;;;2.08;1.30;;;20.30;55.20;;;;;;5032786;28;20033;-59
2021/11/06 07:41:59;;;;;;;1.92;1.15;;;20.30;55.10;;;;;;5028897;28;20059;-56
2021/11/06 07:44:24;;;;;;;2.38;1.27;;;20.30;55.10;;;;;;5031182;28;20064;-59
2021/11/06 07:46:51;;;;;;;2.22;1.10;;;20.30;55.10;;;;;;5033381;28;20033;-58
2021/11/06 07:49:16;;;;;;;1.60;1.00;;;20.30;55.10;;;;;;5035452;28;20047;-59
2021/11/06 07:51:42;;;;;;;1.90;1.10;;;20.30;55.10;;;;;;5024676;28;20117;-57
2021/11/06 07:54:08;;;;;;;2.35;1.20;;;20.30;55.10;;;;;;5044987;28;20028;-59
2021/11/06 07:56:36;;;;;;;2.40;1.27;;;20.30;55.20;;;;;;5039623;28;20034;-57
2021/11/06 07:59:02;;;;;;;1.55;1.10;;;20.30;55.10;;;;;;5043219;28;20113;-58
2021/11/06 08:01:29;;;;;;;1.83;1.15;;;20.30;55.10;;;;;;5032524;28;20504;-59
2021/11/06 08:03:55;;;;;;;2.28;1.27;;;20.30;55.10;;;;;;5042523;28;20179;-57
2021/11/06 08:06:21;;;;;;;2.15;1.20;;;20.30;55.10;;;;;;5032919;28;20152;-58
2021/11/06 08:08:47;;;;;;;2.38;1.20;;;20.30;55.10;;;;;;5034865;28;20047;-58
2021/11/06 08:11:13;;;;;;;2.38;1.30;;;20.30;55.00;;;;;;5033357;28;20025;-58
2021/11/06 08:13:38;;;;;;;2.00;1.30;;;20.30;54.90;;;;;;5035339;28;20037;-59
2021/11/06 08:16:04;;;;;;;2.50;1.27;;;20.30;54.90;;;;;;5031093;28;20026;-58
2021/11/06 08:18:30;;;;;;;2.10;1.20;;;20.30;54.80;;;;;;5041737;28;20508;-57
2021/11/06 08:20:56;;;;;;;1.98;1.17;;;20.30;54.80;;;;;;5041794;28;20468;-59
2021/11/06 08:23:22;;;;;;;2.28;1.33;;;20.30;54.80;;;;;;5027285;28;20025;-59
2021/11/06 08:25:49;;;;;;;2.00;1.20;;;20.20;54.80;;;;;;5037570;28;20048;-57
2021/11/06 08:28:15;;;;;;;1.67;1.20;;;20.30;54.70;;;;;;5040172;28;20025;-59
2021/11/06 08:30:41;;;;;;;3.00;1.30;;;20.30;54.70;;;;;;5038580;28;20043;-59
2021/11/06 08:33:06;;;;;;;1.90;1.20;;;20.20;54.70;;;;;;5031488;28;20111;-59
2021/11/06 08:35:32;;;;;;;2.08;1.10;;;20.30;54.60;;;;;;5042050;28;20025;-59
2021/11/06 08:38:00;;;;;;;2.20;1.25;;;20.20;54.60;;;;;;5036937;28;20040;-59
2021/11/06 08:40:26;;;;;;;2.10;1.15;;;20.20;54.50;;;;;;5033394;28;20079;-58
2021/11/06 08:42:53;;;;;;;2.30;1.20;;;20.20;54.50;;;;;;5033384;28;20456;-59
2021/11/06 08:45:19;;;;;;;1.88;1.17;;;20.20;55.10;;;;;;5037696;28;20061;-57
2021/11/06 08:47:45;;;;;;;2.15;1.27;;;20.20;54.50;;;;;;5038559;28;20033;-59
2021/11/06 08:50:18;;;;;;;2.40;1.17;;;20.20;54.50;;;;;;5044994;28;20041;-59
2021/11/06 08:52:45;;;;;;;2.15;1.30;;;20.20;54.40;;;;;;5034862;28;20029;-58
2021/11/06 08:55:11;;;;;;;1.50;1.08;;;20.20;54.50;;;;;;5037274;28;20025;-60
2021/11/06 08:57:38;;;;;;;2.50;1.30;;;20.20;54.50;;;;;;5032618;28;20041;-59
2021/11/06 09:00:08;;;;;;;1.77;1.20;;;20.20;54.90;;;;;;5035344;28;20449;-60
2021/11/06 09:02:34;;;;;;;2.05;1.20;;;20.20;54.40;;;;;;5033845;28;20044;-59
2021/11/06 09:05:02;;;;;;;1.90;1.10;;;20.20;54.50;;;;;;5036319;28;20037;-60
2021/11/06 09:07:29;;;;;;;2.05;1.30;;;20.20;54.50;;;;;;5031050;28;20088;-56
2021/11/06 09:09:55;;;;;;;1.98;1.10;;;20.20;54.40;;;;;;5039545;28;20040;-59
2021/11/06 09:12:21;;;;;;;1.70;1.10;;;20.20;54.40;;;;;;5035335;28;20028;-58
2021/11/06 09:14:47;;;;;;;1.98;1.27;;;20.20;54.40;;;;;;5038720;28;20036;-59
2021/11/06 09:17:13;;;;;;;1.98;1.20;;;20.20;54.40;;;;;;5035073;28;20462;-59
2021/11/06 09:19:38;;;;;;;2.03;1.10;;;20.20;54.40;;;;;;5037989;28;20055;-58
2021/11/06 09:22:04;;;;;;;2.00;1.27;;;20.10;54.30;;;;;;5038649;28;20032;-59
2021/11/06 09:24:29;;;;;;;2.97;1.20;;;20.20;54.40;;;;;;5033009;28;20029;-58
2021/11/06 09:26:55;;;;;;;2.03;1.20;;;20.20;54.40;;;;;;5030741;28;20032;-59
2021/11/06 09:29:21;;;;;;;1.90;1.10;;;20.20;54.40;;;;;;5033838;28;20448;-58
2021/11/06 09:31:46;;;;;;;1.30;1.08;;;20.20;54.40;;;;;;5036524;28;20124;-59
2021/11/06 09:34:12;;;;;;;2.35;1.17;;;20.20;54.90;;;;;;5034069;28;20028;-55
2021/11/06 09:36:39;;;;;;;1.85;1.10;;;20.10;54.40;;;;;;5042780;28;20056;-58
2021/11/06 09:39:07;;;;;;;1.88;1.20;;;20.10;54.40;;;;;;5035396;28;20039;-59
2021/11/06 09:41:34;;;;;;;2.53;1.23;;;20.20;54.40;;;;;;5038095;28;20037;-58
2021/11/06 09:44:00;;;;;;;1.88;1.10;;;20.10;54.40;;;;;;5038533;28;20108;-58
2021/11/06 09:46:25;;;;;;;1.88;1.20;;;20.10;54.40;;;;;;5036596;28;20032;-59
2021/11/06 09:48:51;;;;;;;1.77;1.10;;;20.10;54.40;;;;;;5039318;28;20083;-59
2021/11/06 09:51:18;;;;;;;1.90;1.20;;;20.10;54.40;;;;;;5040987;28;20052;-57
2021/11/06 09:53:48;;;;;;;2.05;1.17;;;20.10;54.40;;;;;;5036728;28;20337;-59
2021/11/06 09:56:18;;;;;;;1.88;1.10;;;20.10;54.40;;;;;;5037562;28;20021;-57
2021/11/06 09:58:44;;;;;;;2.17;1.30;;;20.10;54.90;;;;;;5041896;28;20029;-58
2021/11/06 10:01:10;;;;;;;1.73;1.20;;;20.10;54.40;;;;;;5035621;28;20751;-59
2021/11/06 10:03:36;;;;;;;1.98;1.10;;;20.10;54.40;;;;;;5036670;28;20636;-58
2021/11/06 10:06:06;;;;;;;1.90;1.15;;;20.10;54.40;;;;;;5044755;28;20025;-59
2021/11/06 10:08:38;;;;;;;2.92;1.20;;;20.10;54.50;;;;;;5034242;28;20056;-59
2021/11/06 10:11:10;;;;;;;2.00;1.20;;;20.10;54.40;;;;;;5038797;28;20033;-57
2021/11/06 10:14:14;;;;;;;1.73;1.10;;;20.10;54.50;;;;;;5038127;28;20377;-59
2021/11/06 10:16:53;;;;;;;1.83;1.17;;;20.10;54.50;;;;;;5040853;28;20104;-59
2021/11/06 10:19:35;;;;;;;2.10;1.15;;;20.10;54.50;;;;;;5037561;28;20043;-54
2021/11/06 10:22:15;;;;;;;1.60;1.10;;;20.10;54.50;;;;;;5045476;28;20048;-60
2021/11/06 10:24:54;;;;;;;2.05;1.02;;;20.10;54.50;;;;;;5034938;28;20553;-59
2021/11/06 10:27:25;;;;;;;2.22;1.20;;;20.10;54.60;;;;;;5037166;28;20404;-59
2021/11/06 10:30:11;;;;;;;1.58;1.00;;;20.10;54.60;;;;;;5042118;28;20109;-59
2021/11/06 10:32:39;;;;;;;2.72;1.20;;;20.10;54.60;;;;;;5036322;28;20518;-59
2021/11/06 10:35:18;;;;;;;1.70;1.20;;;20.10;54.60;;;;;;5046975;28;20023;-56
2021/11/06 10:37:46;;;;;;;1.70;1.10;;;20.10;54.70;;;;;;5035941;28;20097;-58
2021/11/06 10:40:13;;;;;;;1.95;1.33;;;20.10;54.70;;;;;;5038119;28;20563;-58
2021/11/06 10:42:53;;;;;;;2.08;1.23;;;20.10;54.70;;;;;;5035667;28;20211;-57
2021/11/06 10:45:21;;;;;;;;;;;20.10;54.70;;;;;;5042237;28;20033;-59
2021/11/06 10:48:00;;;;;;;2.28;1.30;;;20.10;54.80;;;;;;5040189;28;19941;-57
2021/11/06 10:50:46;;;;;;;;;;;20.10;54.80;;;;;;5039492;28;20025;-59
2021/11/06 10:53:15;;;;;;;1.25;0.90;;;20.10;54.90;;;;;;5042076;28;20281;-57
2021/11/06 10:55:44;;;;;;;1.95;1.20;;;20.10;54.90;;;;;;5036367;28;20132;-58
2021/11/06 10:58:31;;;;;;;2.05;1.25;;;20.10;55.00;;;;;;5036120;28;20036;-57
2021/11/06 11:01:00;;;;;;;2.00;1.10;;;20.10;55.00;;;;;;5036990;28;20314;-57
2021/11/06 11:03:26;;;;;;;;;;;20.10;55.00;;;;;;5042192;28;20182;-58
2021/11/06 11:05:52;;;;;;;2.03;1.13;;;20.00;55.10;;;;;;5044476;28;20013;-56
2021/11/06 11:08:18;;;;;;;2.80;1.35;;;20.10;55.10;;;;;;5038079;28;20064;-59
2021/11/06 11:10:45;;;;;;;2.50;1.33;;;20.10;55.20;;;;;;5035956;28;20790;-58
2021/11/06 11:13:22;;;;;;;1.67;1.17;;;20.00;55.10;;;;;;5036130;28;20070;-58
2021/11/06 11:15:50;;;;;;;2.58;1.00;;;20.10;55.20;;;;;;5044859;28;20117;-59
2021/11/06 11:18:37;;;;;;;1.80;1.10;;;20.10;55.30;;;;;;5044100;28;20089;-58
2021/11/06 11:21:21;;;;;;;1.75;1.13;;;20.10;55.40;;;;;;5041418;28;20020;-59
2021/11/06 11:23:48;;;;;;;5.30;1.20;;;20.10;55.40;;;;;;5036390;28;20032;-60
2021/11/06 11:26:15;;;;;;;2.65;1.10;;;20.10;55.40;;;;;;5035162;28;20120;-58
2021/11/06 11:28:41;;;;;;;2.72;1.25;;;20.10;55.50;;;;;;5045676;28;20029;-58
2021/11/06 11:31:07;;;;;;;3.28;1.20;;;20.10;55.50;;;;;;5043021;28;20033;-59
2021/11/06 11:33:35;;;;;;;1.88;1.20;;;20.10;55.50;;;;;;5038443;28;20025;-58
2021/11/06 11:36:01;;;;;;;2.80;1.30;;;20.00;55.50;;;;;;5038227;28;20054;-59
2021/11/06 11:38:27;;;;;;;1.88;1.20;;;20.00;55.50;;;;;;5028973;28;20119;-58
2021/11/06 11:41:11;;;;;;;2.70;1.30;;;20.00;55.50;;;;;;5035179;28;20037;-58
2021/11/06 11:44:16;;;;;;;3.33;1.15;;;20.00;55.50;;;;;;5032591;28;20044;-58
2021/11/06 11:46:49;;;;;;;2.70;1.10;;;20.00;55.50;;;;;;5032996;28;20037;-59
2021/11/06 11:49:17;;;;;;;2.15;1.27;;;20.00;55.60;;;;;;5044932;28;20700;-58
2021/11/06 11:51:42;;;;;;;2.50;1.45;;;20.10;55.70;;;;;;5031287;28;20037;-58
2021/11/06 11:54:10;;;;;;;2.28;1.38;;;20.10;55.90;;;;;;5041564;28;20034;-58
2021/11/06 11:56:38;;;;;;;2.35;1.42;;;20.10;55.90;;;;;;5038592;28;20124;-58
2021/11/06 11:59:05;;;;;;;2.70;1.30;;;20.10;56.00;;;;;;5032955;28;20097;-56
2021/11/06 12:01:32;;;;;;;2.33;1.20;;;20.10;56.00;;;;;;5035408;28;20037;-58
2021/11/06 12:04:17;;;;;;;2.28;1.40;;;20.10;56.10;;;;;;5035649;28;20025;-58
2021/11/06 12:06:44;;;;;;;2.58;1.60;;;20.10;56.20;;;;;;5041768;28;20056;-58
2021/11/06 12:09:16;;;;;;;2.47;1.50;;;20.10;56.20;;;;;;5035331;28;20448;-58
2021/11/06 12:11:46;;;;;;;3.30;1.40;;;20.10;56.30;;;;;;5036757;28;20026;-58
2021/11/06 12:14:21;;;;;;;2.22;1.40;;;20.10;56.30;;;;;;5039922;28;20048;-59
2021/11/06 12:16:58;;;;;;;2.28;1.40;;;20.10;56.70;;;;;;5037195;28;20134;-59
2021/11/06 12:19:42;;;;;;;3.38;1.40;;;20.10;56.30;;;;;;5032561;28;20037;-58
2021/11/06 12:22:32;;;;;;;3.22;1.30;;;20.10;56.60;;;;;;5030466;28;20029;-59
2021/11/06 12:25:13;;;;;;;4.25;1.30;;;20.20;56.70;;;;;;5035676;28;20044;-57
2021/11/06 12:27:49;;;;;;;3.35;1.17;;;20.20;56.80;;;;;;5034109;28;20148;-59
2021/11/06 12:30:35;;;;;;;2.63;1.40;;;20.20;56.70;;;;;;5040502;28;20130;-59
2021/11/06 12:33:03;;;;;;;2.90;1.10;;;20.30;56.80;;;;;;5032484;28;20100;-58
2021/11/06 12:35:29;;;;;;;1.92;1.30;;;20.30;56.70;;;;;;5039283;28;20030;-55
2021/11/06 12:37:58;;;;;;;3.03;1.40;;;20.40;56.80;;;;;;5039962;28;20029;-59
2021/11/06 12:40:49;;;;;;;3.50;2.10;;;20.40;56.90;;;;;;5028369;28;20516;-59
2021/11/06 12:43:24;;;;;;;1.85;1.10;;;20.40;56.90;;;;;;5033121;28;20182;-59
2021/11/06 12:45:54;;;;;;;2.63;1.35;;;20.50;57.00;;;;;;5032208;28;20035;-59
2021/11/06 12:48:21;;;;;;;2.28;1.30;;;20.50;57.00;;;;;;5030445;28;20442;-57
2021/11/06 12:50:56;;;;;;;2.85;1.20;;;20.50;57.00;;;;;;5029080;28;20411;-59